sensor_id;sensor_type;location;lat;lon;timestamp;pressure;altitude;pressure_sealevel;temperature;humidity
4590;BME280;2307;48.448;9.216;2023-12-29T00:01:59;95518.84;;;10.36;100.00
4590;BME280;2307;48.448;9.216;2023-12-29T00:04:25;95506.47;;;10.37;100.00
4590;BME280;2307;48.448;9.216;2023-12-29T00:06:51;95502.44;;;10.34;100.00
4590;BME280;2307;48.448;9.216;2023-12-29T00:09:19;95500.84;;;10.33;100.00
4590;BME280;2307;48.448;9.216;2023-12-29T00:11:46;95514.03;;;10.33;100.00
4590;BME280;2307;48.448;9.216;2023-12-29T00:14:12;95498.75;;;10.35;100.00
4590;BME280;2307;48.448;9.216;2023-12-29T00:16:38;95506.13;;;10.33;100.00
4590;BME280;2307;48.448;9.216;2023-12-29T00:19:05;95499.69;;;10.29;100.00
4590;BME280;2307;48.448;9.216;2023-12-29T00:21:31;95508.41;;;10.30;100.00
4590;BME280;2307;48.448;9.216;2023-12-29T00:23:58;95485.22;;;10.32;100.00
4590;BME280;2307;48.448;9.216;2023-12-29T00:26:25;95462.25;;;10.32;100.00
4590;BME280;2307;48.448;9.216;2023-12-29T00:28:52;95476.03;;;10.34;100.00
4590;BME280;2307;48.448;9.216;2023-12-29T00:31:18;95482.91;;;10.35;100.00
4590;BME280;2307;48.448;9.216;2023-12-29T00:33:44;95482.91;;;10.35;100.00
4590;BME280;2307;48.448;9.216;2023-12-29T00:36:14;95467.53;;;10.32;100.00
4590;BME280;2307;48.448;9.216;2023-12-29T00:38:40;95475.47;;;10.32;100.00
4590;BME280;2307;48.448;9.216;2023-12-29T00:41:07;95470.75;;;10.34;100.00
4590;BME280;2307;48.448;9.216;2023-12-29T00:43:35;95479.72;;;10.33;100.00
4590;BME280;2307;48.448;9.216;2023-12-29T00:46:02;95468.34;;;10.33;100.00
4590;BME280;2307;48.448;9.216;2023-12-29T00:48:28;95480.53;;;10.34;100.00
4590;BME280;2307;48.448;9.216;2023-12-29T00:50:55;95474.53;;;10.38;100.00
4590;BME280;2307;48.448;9.216;2023-12-29T00:53:21;95463.41;;;10.36;100.00
4590;BME280;2307;48.448;9.216;2023-12-29T00:55:47;95464.78;;;10.39;100.00
4590;BME280;2307;48.448;9.216;2023-12-29T00:58:14;95460.19;;;10.34;100.00
4590;BME280;2307;48.448;9.216;2023-12-29T01:00:41;95461.91;;;10.40;100.00
4590;BME280;2307;48.448;9.216;2023-12-29T01:03:08;95467.78;;;10.42;100.00
4590;BME280;2307;48.448;9.216;2023-12-29T01:05:34;95471.44;;;10.41;100.00
4590;BME280;2307;48.448;9.216;2023-12-29T01:08:00;95476.38;;;10.49;100.00
4590;BME280;2307;48.448;9.216;2023-12-29T01:10:27;95460.41;;;10.44;100.00
4590;BME280;2307;48.448;9.216;2023-12-29T01:12:53;95477.28;;;10.43;100.00
4590;BME280;2307;48.448;9.216;2023-12-29T01:15:19;95472.81;;;10.44;100.00
4590;BME280;2307;48.448;9.216;2023-12-29T01:17:47;95496.13;;;10.35;100.00
4590;BME280;2307;48.448;9.216;2023-12-29T01:20:14;95506.69;;;10.24;100.00
4590;BME280;2307;48.448;9.216;2023-12-29T01:22:40;95482.69;;;10.02;100.00
4590;BME280;2307;48.448;9.216;2023-12-29T01:25:07;95495.50;;;9.87;100.00
4590;BME280;2307;48.448;9.216;2023-12-29T01:27:33;95487.22;;;9.72;100.00
4590;BME280;2307;48.448;9.216;2023-12-29T01:30:00;95500.75;;;9.64;100.00
4590;BME280;2307;48.448;9.216;2023-12-29T01:32:26;95507.03;;;9.63;100.00
4590;BME280;2307;48.448;9.216;2023-12-29T01:34:54;95511.03;;;9.65;100.00
4590;BME280;2307;48.448;9.216;2023-12-29T01:37:20;95524.59;;;9.69;100.00
4590;BME280;2307;48.448;9.216;2023-12-29T01:39:47;95509.00;;;9.67;100.00
4590;BME280;2307;48.448;9.216;2023-12-29T01:42:13;95515.41;;;9.71;100.00
4590;BME280;2307;48.448;9.216;2023-12-29T01:44:39;95510.94;;;9.72;100.00
4590;BME280;2307;48.448;9.216;2023-12-29T01:47:10;95503.50;;;9.69;100.00
4590;BME280;2307;48.448;9.216;2023-12-29T01:49:37;95511.28;;;9.64;100.00
4590;BME280;2307;48.448;9.216;2023-12-29T01:52:05;95514.03;;;9.57;100.00
4590;BME280;2307;48.448;9.216;2023-12-29T01:54:33;95509.56;;;9.57;100.00
4590;BME280;2307;48.448;9.216;2023-12-29T01:57:00;95523.75;;;9.56;100.00
4590;BME280;2307;48.448;9.216;2023-12-29T01:59:28;95504.28;;;9.57;100.00
4590;BME280;2307;48.448;9.216;2023-12-29T02:01:56;95504.41;;;9.63;100.00
4590;BME280;2307;48.448;9.216;2023-12-29T02:04:23;95495.47;;;9.64;100.00
4590;BME280;2307;48.448;9.216;2023-12-29T02:06:49;95495.47;;;9.64;100.00
4590;BME280;2307;48.448;9.216;2023-12-29T02:09:18;95501.31;;;9.66;100.00
4590;BME280;2307;48.448;9.216;2023-12-29T02:11:44;95484.47;;;9.67;100.00
4590;BME280;2307;48.448;9.216;2023-12-29T02:14:11;95488.56;;;9.63;100.00
4590;BME280;2307;48.448;9.216;2023-12-29T02:16:38;95487.78;;;9.62;100.00
4590;BME280;2307;48.448;9.216;2023-12-29T02:19:09;95489.16;;;9.65;100.00
4590;BME280;2307;48.448;9.216;2023-12-29T02:21:39;95499.69;;;9.65;100.00
4590;BME280;2307;48.448;9.216;2023-12-29T02:24:06;95489.75;;;9.67;100.00
4590;BME280;2307;48.448;9.216;2023-12-29T02:26:33;95490.56;;;9.67;100.00
4590;BME280;2307;48.448;9.216;2023-12-29T02:29:02;95491.69;;;9.71;100.00
4590;BME280;2307;48.448;9.216;2023-12-29T02:31:30;95475.06;;;9.71;100.00
4590;BME280;2307;48.448;9.216;2023-12-29T02:33:57;95473.47;;;9.70;100.00
4590;BME280;2307;48.448;9.216;2023-12-29T02:36:28;95473.91;;;9.67;100.00
4590;BME280;2307;48.448;9.216;2023-12-29T02:38:55;95470.81;;;9.70;100.00
4590;BME280;2307;48.448;9.216;2023-12-29T02:41:22;95472.31;;;9.66;100.00
4590;BME280;2307;48.448;9.216;2023-12-29T02:43:51;95473.47;;;9.70;100.00
4590;BME280;2307;48.448;9.216;2023-12-29T02:46:17;95455.56;;;9.72;100.00
4590;BME280;2307;48.448;9.216;2023-12-29T02:48:43;95468.75;;;9.72;100.00
4590;BME280;2307;48.448;9.216;2023-12-29T02:51:10;95457.19;;;9.73;100.00
4590;BME280;2307;48.448;9.216;2023-12-29T02:53:36;95465.19;;;9.78;100.00
4590;BME280;2307;48.448;9.216;2023-12-29T02:56:03;95457.28;;;9.78;100.00
4590;BME280;2307;48.448;9.216;2023-12-29T02:58:29;95467.84;;;9.78;100.00
4590;BME280;2307;48.448;9.216;2023-12-29T03:00:57;95453.03;;;9.77;100.00
4590;BME280;2307;48.448;9.216;2023-12-29T03:03:23;95437.22;;;9.77;100.00
4590;BME280;2307;48.448;9.216;2023-12-29T03:05:50;95445.72;;;9.79;100.00
4590;BME280;2307;48.448;9.216;2023-12-29T03:08:16;95449.97;;;9.80;100.00
4590;BME280;2307;48.448;9.216;2023-12-29T03:10:42;95445.59;;;9.74;100.00
4590;BME280;2307;48.448;9.216;2023-12-29T03:13:09;95446.19;;;9.76;100.00
4590;BME280;2307;48.448;9.216;2023-12-29T03:15:35;95460.94;;;9.77;100.00
4590;BME280;2307;48.448;9.216;2023-12-29T03:18:03;95420.59;;;9.76;100.00
4590;BME280;2307;48.448;9.216;2023-12-29T03:20:29;95425.19;;;9.69;100.00
4590;BME280;2307;48.448;9.216;2023-12-29T03:22:55;95425.06;;;9.76;100.00
4590;BME280;2307;48.448;9.216;2023-12-29T03:25:22;95411.28;;;9.74;100.00
4590;BME280;2307;48.448;9.216;2023-12-29T03:27:48;95408.09;;;9.72;100.00
4590;BME280;2307;48.448;9.216;2023-12-29T03:30:15;95417.28;;;9.69;100.00
4590;BME280;2307;48.448;9.216;2023-12-29T03:32:41;95399.63;;;9.70;100.00
4590;BME280;2307;48.448;9.216;2023-12-29T03:35:09;95409.56;;;9.68;100.00
4590;BME280;2307;48.448;9.216;2023-12-29T03:37:35;95400.53;;;9.64;100.00
4590;BME280;2307;48.448;9.216;2023-12-29T03:40:02;95379.44;;;9.64;100.00
4590;BME280;2307;48.448;9.216;2023-12-29T03:42:28;95419.66;;;9.59;100.00
4590;BME280;2307;48.448;9.216;2023-12-29T03:44:54;95404.31;;;9.56;100.00
4590;BME280;2307;48.448;9.216;2023-12-29T03:47:21;95395.47;;;9.50;100.00
4590;BME280;2307;48.448;9.216;2023-12-29T03:49:47;95398.44;;;9.42;100.00
4590;BME280;2307;48.448;9.216;2023-12-29T03:52:15;95393.16;;;9.42;100.00
4590;BME280;2307;48.448;9.216;2023-12-29T03:54:41;95390.53;;;9.42;100.00
4590;BME280;2307;48.448;9.216;2023-12-29T03:57:07;95396.84;;;9.41;100.00
4590;BME280;2307;48.448;9.216;2023-12-29T03:59:35;95403.03;;;9.35;100.00
4590;BME280;2307;48.448;9.216;2023-12-29T04:02:02;95415.97;;;9.37;100.00
4590;BME280;2307;48.448;9.216;2023-12-29T04:04:28;95401.16;;;9.36;100.00
4590;BME280;2307;48.448;9.216;2023-12-29T04:06:55;95394.78;;;9.32;100.00
4590;BME280;2307;48.448;9.216;2023-12-29T04:09:22;95402.22;;;9.35;100.00
4590;BME280;2307;48.448;9.216;2023-12-29T04:11:49;95410.59;;;9.43;100.00
4590;BME280;2307;48.448;9.216;2023-12-29T04:14:15;95414.94;;;9.49;100.00
4590;BME280;2307;48.448;9.216;2023-12-29T04:16:41;95409.47;;;9.51;100.00
4590;BME280;2307;48.448;9.216;2023-12-29T04:19:08;95405.78;;;9.52;100.00
4590;BME280;2307;48.448;9.216;2023-12-29T04:21:34;95404.88;;;9.58;100.00
4590;BME280;2307;48.448;9.216;2023-12-29T04:24:01;95403.84;;;9.59;100.00
4590;BME280;2307;48.448;9.216;2023-12-29T04:26:29;95421.63;;;9.64;100.00
4590;BME280;2307;48.448;9.216;2023-12-29T04:28:55;95415.09;;;9.66;100.00
4590;BME280;2307;48.448;9.216;2023-12-29T04:31:21;95413.03;;;9.68;100.00
4590;BME280;2307;48.448;9.216;2023-12-29T04:33:48;95418.66;;;9.72;100.00
4590;BME280;2307;48.448;9.216;2023-12-29T04:36:14;95397.91;;;9.75;100.00
4590;BME280;2307;48.448;9.216;2023-12-29T04:38:40;95407.19;;;9.78;100.00
4590;BME280;2307;48.448;9.216;2023-12-29T04:41:07;95406.84;;;9.74;100.00
4590;BME280;2307;48.448;9.216;2023-12-29T04:43:34;95418.53;;;9.67;100.00
4590;BME280;2307;48.448;9.216;2023-12-29T04:46:01;95408.66;;;9.74;100.00
4590;BME280;2307;48.448;9.216;2023-12-29T04:48:27;95429.19;;;9.72;100.00
4590;BME280;2307;48.448;9.216;2023-12-29T04:50:54;95403.84;;;9.71;100.00
4590;BME280;2307;48.448;9.216;2023-12-29T04:53:20;95410.03;;;9.65;100.00
4590;BME280;2307;48.448;9.216;2023-12-29T04:55:46;95414.75;;;9.63;100.00
4590;BME280;2307;48.448;9.216;2023-12-29T04:58:13;95410.50;;;9.61;100.00
4590;BME280;2307;48.448;9.216;2023-12-29T05:00:40;95413.94;;;9.62;100.00
4590;BME280;2307;48.448;9.216;2023-12-29T05:03:07;95418.41;;;9.61;100.00
4590;BME280;2307;48.448;9.216;2023-12-29T05:05:33;95413.13;;;9.61;100.00
4590;BME280;2307;48.448;9.216;2023-12-29T05:07:59;95404.66;;;9.59;100.00
4590;BME280;2307;48.448;9.216;2023-12-29T05:10:26;95385.63;;;9.57;100.00
4590;BME280;2307;48.448;9.216;2023-12-29T05:12:52;95396.75;;;9.59;100.00
4590;BME280;2307;48.448;9.216;2023-12-29T05:15:18;95378.75;;;9.56;100.00
4590;BME280;2307;48.448;9.216;2023-12-29T05:17:46;95391.78;;;9.51;100.00
4590;BME280;2307;48.448;9.216;2023-12-29T05:20:13;95390.66;;;9.47;100.00
4590;BME280;2307;48.448;9.216;2023-12-29T05:22:39;95402.91;;;9.42;100.00
4590;BME280;2307;48.448;9.216;2023-12-29T05:25:06;95396.84;;;9.41;100.00
4590;BME280;2307;48.448;9.216;2023-12-29T05:27:32;95396.50;;;9.38;100.00
4590;BME280;2307;48.448;9.216;2023-12-29T05:29:58;95400.72;;;9.39;100.00
4590;BME280;2307;48.448;9.216;2023-12-29T05:32:25;95397.63;;;9.42;100.00
4590;BME280;2307;48.448;9.216;2023-12-29T05:34:53;95410.13;;;9.46;100.00
4590;BME280;2307;48.448;9.216;2023-12-29T05:37:19;95401.22;;;9.47;100.00
4590;BME280;2307;48.448;9.216;2023-12-29T05:39:45;95413.47;;;9.53;100.00
4590;BME280;2307;48.448;9.216;2023-12-29T05:42:12;95407.50;;;9.58;100.00
4590;BME280;2307;48.448;9.216;2023-12-29T05:44:38;95408.66;;;9.62;100.00
4590;BME280;2307;48.448;9.216;2023-12-29T05:47:05;95409.38;;;9.57;100.00
4590;BME280;2307;48.448;9.216;2023-12-29T05:49:31;95402.47;;;9.56;100.00
4590;BME280;2307;48.448;9.216;2023-12-29T05:52:04;95415.66;;;9.56;100.00
4590;BME280;2307;48.448;9.216;2023-12-29T05:54:31;95408.88;;;9.49;100.00
4590;BME280;2307;48.448;9.216;2023-12-29T05:56:57;95419.06;;;9.45;100.00
4590;BME280;2307;48.448;9.216;2023-12-29T05:59:24;95411.75;;;9.47;100.00
4590;BME280;2307;48.448;9.216;2023-12-29T06:01:50;95412.88;;;9.51;100.00
4590;BME280;2307;48.448;9.216;2023-12-29T06:04:17;95422.53;;;9.57;100.00
4590;BME280;2307;48.448;9.216;2023-12-29T06:06:43;95421.97;;;9.67;100.00
4590;BME280;2307;48.448;9.216;2023-12-29T06:09:12;95417.13;;;9.64;100.00
4590;BME280;2307;48.448;9.216;2023-12-29T06:11:38;95422.19;;;9.66;100.00
4590;BME280;2307;48.448;9.216;2023-12-29T06:14:04;95429.19;;;9.72;100.00
4590;BME280;2307;48.448;9.216;2023-12-29T06:16:31;95418.19;;;9.75;100.00
4590;BME280;2307;48.448;9.216;2023-12-29T06:18:57;95421.38;;;9.77;100.00
4590;BME280;2307;48.448;9.216;2023-12-29T06:21:24;95436.44;;;9.76;100.00
4590;BME280;2307;48.448;9.216;2023-12-29T06:23:50;95438.03;;;9.77;100.00
4590;BME280;2307;48.448;9.216;2023-12-29T06:26:19;95442.06;;;9.80;100.00
4590;BME280;2307;48.448;9.216;2023-12-29T06:28:45;95416.47;;;9.80;100.00
4590;BME280;2307;48.448;9.216;2023-12-29T06:31:12;95435.41;;;9.89;100.00
4590;BME280;2307;48.448;9.216;2023-12-29T06:33:40;95423.25;;;9.88;100.00
4590;BME280;2307;48.448;9.216;2023-12-29T06:36:07;95431.25;;;9.93;100.00
4590;BME280;2307;48.448;9.216;2023-12-29T06:38:33;95421.75;;;9.92;100.00
4590;BME280;2307;48.448;9.216;2023-12-29T06:41:01;95425.97;;;9.93;100.00
4590;BME280;2307;48.448;9.216;2023-12-29T06:43:29;95421.06;;;9.96;100.00
4590;BME280;2307;48.448;9.216;2023-12-29T06:45:55;95422.44;;;9.99;100.00
4590;BME280;2307;48.448;9.216;2023-12-29T06:48:21;95401.66;;;10.02;100.00
4590;BME280;2307;48.448;9.216;2023-12-29T06:50:47;95400.28;;;10.00;100.00
4590;BME280;2307;48.448;9.216;2023-12-29T06:53:14;95416.25;;;9.93;100.00
4590;BME280;2307;48.448;9.216;2023-12-29T06:55:40;95398.81;;;9.92;100.00
4590;BME280;2307;48.448;9.216;2023-12-29T06:58:07;95419.22;;;9.85;100.00
4590;BME280;2307;48.448;9.216;2023-12-29T07:00:34;95410.50;;;9.85;100.00
4590;BME280;2307;48.448;9.216;2023-12-29T07:03:01;95405.13;;;9.80;100.00
4590;BME280;2307;48.448;9.216;2023-12-29T07:05:27;95419.09;;;9.80;100.00
4590;BME280;2307;48.448;9.216;2023-12-29T07:07:54;95403.16;;;9.75;100.00
4590;BME280;2307;48.448;9.216;2023-12-29T07:10:20;95400.75;;;9.74;100.00
4590;BME280;2307;48.448;9.216;2023-12-29T07:12:47;95416.00;;;9.72;100.00
4590;BME280;2307;48.448;9.216;2023-12-29T07:15:13;95421.97;;;9.67;100.00
4590;BME280;2307;48.448;9.216;2023-12-29T07:17:41;95410.16;;;9.70;100.00
4590;BME280;2307;48.448;9.216;2023-12-29T07:20:08;95404.75;;;9.65;100.00
4590;BME280;2307;48.448;9.216;2023-12-29T07:22:34;95410.03;;;9.65;100.00
4590;BME280;2307;48.448;9.216;2023-12-29T07:25:01;95417.13;;;9.64;100.00
4590;BME280;2307;48.448;9.216;2023-12-29T07:27:27;95416.13;;;9.65;100.00
4590;BME280;2307;48.448;9.216;2023-12-29T07:29:54;95405.81;;;9.64;100.00
4590;BME280;2307;48.448;9.216;2023-12-29T07:32:20;95410.50;;;9.61;100.00
4590;BME280;2307;48.448;9.216;2023-12-29T07:34:48;95419.22;;;9.62;100.00
4590;BME280;2307;48.448;9.216;2023-12-29T07:37:14;95423.22;;;9.65;100.00
4590;BME280;2307;48.448;9.216;2023-12-29T07:39:41;95417.63;;;9.73;100.00
4590;BME280;2307;48.448;9.216;2023-12-29T07:42:07;95419.81;;;9.76;100.00
4590;BME280;2307;48.448;9.216;2023-12-29T07:44:34;95424.97;;;9.82;100.00
4590;BME280;2307;48.448;9.216;2023-12-29T07:47:00;95415.13;;;9.89;100.00
4590;BME280;2307;48.448;9.216;2023-12-29T07:49:26;95408.09;;;9.95;100.00
4590;BME280;2307;48.448;9.216;2023-12-29T07:51:54;95423.69;;;9.96;100.00
4590;BME280;2307;48.448;9.216;2023-12-29T07:54:24;95427.94;;;9.97;100.00
4590;BME280;2307;48.448;9.216;2023-12-29T07:56:50;95427.69;;;9.99;100.00
4590;BME280;2307;48.448;9.216;2023-12-29T07:59:17;95428.63;;;10.04;100.00
4590;BME280;2307;48.448;9.216;2023-12-29T08:01:43;95436.56;;;10.04;100.00
4590;BME280;2307;48.448;9.216;2023-12-29T08:04:10;95431.03;;;10.06;100.00
4590;BME280;2307;48.448;9.216;2023-12-29T08:06:36;95424.94;;;10.05;100.00
4590;BME280;2307;48.448;9.216;2023-12-29T08:09:04;95415.19;;;10.06;100.00
4590;BME280;2307;48.448;9.216;2023-12-29T08:11:32;95422.56;;;10.04;100.00
4590;BME280;2307;48.448;9.216;2023-12-29T08:13:58;95414.75;;;10.09;100.00
4590;BME280;2307;48.448;9.216;2023-12-29T08:16:25;95421.28;;;10.06;100.00
4590;BME280;2307;48.448;9.216;2023-12-29T08:18:51;95417.28;;;10.04;100.00
4590;BME280;2307;48.448;9.216;2023-12-29T08:21:18;95427.03;;;10.03;100.00
4590;BME280;2307;48.448;9.216;2023-12-29T08:23:45;95428.38;;;10.06;100.00
4590;BME280;2307;48.448;9.216;2023-12-29T08:26:12;95409.47;;;10.09;100.00
4590;BME280;2307;48.448;9.216;2023-12-29T08:28:39;95420.00;;;10.09;100.00
4590;BME280;2307;48.448;9.216;2023-12-29T08:31:06;95417.53;;;10.14;100.00
4590;BME280;2307;48.448;9.216;2023-12-29T08:33:32;95423.81;;;10.13;100.00
4590;BME280;2307;48.448;9.216;2023-12-29T08:36:01;95418.66;;;10.18;100.00
4590;BME280;2307;48.448;9.216;2023-12-29T08:38:28;95434.03;;;10.21;100.00
4590;BME280;2307;48.448;9.216;2023-12-29T08:40:55;95423.03;;;10.24;100.00
4590;BME280;2307;48.448;9.216;2023-12-29T08:43:23;95428.41;;;10.29;100.00
4590;BME280;2307;48.448;9.216;2023-12-29T08:45:49;95417.94;;;10.34;100.00
4590;BME280;2307;48.448;9.216;2023-12-29T08:48:16;95414.50;;;10.45;100.00
4590;BME280;2307;48.448;9.216;2023-12-29T08:50:42;95422.25;;;10.63;100.00
4590;BME280;2307;48.448;9.216;2023-12-29T08:53:09;95413.03;;;10.78;100.00
4590;BME280;2307;48.448;9.216;2023-12-29T08:55:35;95418.88;;;10.80;100.00
4590;BME280;2307;48.448;9.216;2023-12-29T08:58:02;95421.53;;;10.80;100.00
4590;BME280;2307;48.448;9.216;2023-12-29T09:00:29;95417.13;;;10.85;100.00
4590;BME280;2307;48.448;9.216;2023-12-29T09:02:56;95412.91;;;10.84;100.00
4590;BME280;2307;48.448;9.216;2023-12-29T09:05:22;95420.91;;;10.89;100.00
4590;BME280;2307;48.448;9.216;2023-12-29T09:07:48;95418.25;;;10.89;100.00
4590;BME280;2307;48.448;9.216;2023-12-29T09:10:15;95423.31;;;10.91;100.00
4590;BME280;2307;48.448;9.216;2023-12-29T09:12:41;95426.53;;;10.93;100.00
4590;BME280;2307;48.448;9.216;2023-12-29T09:15:08;95427.00;;;10.90;100.00
4590;BME280;2307;48.448;9.216;2023-12-29T09:17:35;95402.97;;;10.91;100.00
4590;BME280;2307;48.448;9.216;2023-12-29T09:20:02;95408.38;;;10.85;100.00
4590;BME280;2307;48.448;9.216;2023-12-29T09:22:28;95423.97;;;10.98;100.00
4590;BME280;2307;48.448;9.216;2023-12-29T09:24:55;95428.91;;;10.94;100.00
4590;BME280;2307;48.448;9.216;2023-12-29T09:27:21;95416.97;;;10.92;100.00
4590;BME280;2307;48.448;9.216;2023-12-29T09:29:48;95433.44;;;10.94;100.00
4590;BME280;2307;48.448;9.216;2023-12-29T09:32:14;95424.44;;;10.95;100.00
4590;BME280;2307;48.448;9.216;2023-12-29T09:34:42;95452.47;;;10.96;100.00
4590;BME280;2307;48.448;9.216;2023-12-29T09:37:08;95431.34;;;10.96;100.00
4590;BME280;2307;48.448;9.216;2023-12-29T09:39:34;95434.53;;;10.98;100.00
4590;BME280;2307;48.448;9.216;2023-12-29T09:42:01;95446.44;;;11.12;100.00
4590;BME280;2307;48.448;9.216;2023-12-29T09:44:30;95439.06;;;11.14;100.00
4590;BME280;2307;48.448;9.216;2023-12-29T09:46:57;95434.44;;;11.21;100.00
4590;BME280;2307;48.448;9.216;2023-12-29T09:49:26;95436.84;;;11.23;100.00
4590;BME280;2307;48.448;9.216;2023-12-29T09:51:54;95436.53;;;11.19;100.00
4590;BME280;2307;48.448;9.216;2023-12-29T09:54:22;95428.50;;;11.14;100.00
4590;BME280;2307;48.448;9.216;2023-12-29T09:56:49;95436.91;;;11.11;100.00
4590;BME280;2307;48.448;9.216;2023-12-29T09:59:15;95445.31;;;11.08;100.00
4590;BME280;2307;48.448;9.216;2023-12-29T10:01:42;95434.72;;;11.08;100.00
4590;BME280;2307;48.448;9.216;2023-12-29T10:04:11;95443.59;;;11.02;100.00
4590;BME280;2307;48.448;9.216;2023-12-29T10:06:38;95435.69;;;11.02;100.00
4590;BME280;2307;48.448;9.216;2023-12-29T10:09:09;95440.16;;;11.01;100.00
4590;BME280;2307;48.448;9.216;2023-12-29T10:11:37;95452.69;;;11.06;100.00
4590;BME280;2307;48.448;9.216;2023-12-29T10:14:09;95444.97;;;11.04;100.00
4590;BME280;2307;48.448;9.216;2023-12-29T10:16:38;95445.84;;;10.93;100.00
4590;BME280;2307;48.448;9.216;2023-12-29T10:19:09;95464.00;;;10.90;100.00
4590;BME280;2307;48.448;9.216;2023-12-29T10:21:37;95459.06;;;10.82;100.00
4590;BME280;2307;48.448;9.216;2023-12-29T10:24:10;95471.59;;;10.86;100.00
4590;BME280;2307;48.448;9.216;2023-12-29T10:26:39;95432.88;;;10.80;100.00
4590;BME280;2307;48.448;9.216;2023-12-29T10:29:06;95447.13;;;10.79;100.00
4590;BME280;2307;48.448;9.216;2023-12-29T10:31:32;95437.97;;;10.70;100.00
4590;BME280;2307;48.448;9.216;2023-12-29T10:36:46;95432.00;;;10.75;100.00
4590;BME280;2307;48.448;9.216;2023-12-29T10:39:13;95427.75;;;10.74;100.00
4590;BME280;2307;48.448;9.216;2023-12-29T10:41:40;95429.78;;;10.83;100.00
4590;BME280;2307;48.448;9.216;2023-12-29T10:44:07;95407.28;;;10.81;100.00
4590;BME280;2307;48.448;9.216;2023-12-29T10:46:34;95415.19;;;10.81;100.00
4590;BME280;2307;48.448;9.216;2023-12-29T10:49:06;95416.75;;;10.93;100.00
4590;BME280;2307;48.448;9.216;2023-12-29T10:51:33;95405.09;;;11.06;100.00
4590;BME280;2307;48.448;9.216;2023-12-29T10:53:59;95393.19;;;11.20;100.00
4590;BME280;2307;48.448;9.216;2023-12-29T10:56:27;95397.75;;;11.25;100.00
4590;BME280;2307;48.448;9.216;2023-12-29T10:58:57;95389.72;;;11.19;100.00
4590;BME280;2307;48.448;9.216;2023-12-29T11:01:24;95385.66;;;11.12;100.00
4590;BME280;2307;48.448;9.216;2023-12-29T11:03:56;95388.91;;;11.02;100.00
4590;BME280;2307;48.448;9.216;2023-12-29T11:06:23;95383.91;;;10.89;100.00
4590;BME280;2307;48.448;9.216;2023-12-29T11:08:49;95385.19;;;10.87;100.00
4590;BME280;2307;48.448;9.216;2023-12-29T11:11:15;95383.59;;;10.86;100.00
4590;BME280;2307;48.448;9.216;2023-12-29T11:13:43;95375.19;;;10.89;100.00
4590;BME280;2307;48.448;9.216;2023-12-29T11:16:12;95371.59;;;10.95;100.00
4590;BME280;2307;48.448;9.216;2023-12-29T11:18:38;95381.13;;;10.96;100.00
4590;BME280;2307;48.448;9.216;2023-12-29T11:21:07;95370.63;;;11.01;100.00
4590;BME280;2307;48.448;9.216;2023-12-29T11:23:34;95364.88;;;11.04;100.00
4590;BME280;2307;48.448;9.216;2023-12-29T11:26:00;95364.09;;;11.03;100.00
4590;BME280;2307;48.448;9.216;2023-12-29T11:28:27;95368.00;;;11.01;100.00
4590;BME280;2307;48.448;9.216;2023-12-29T11:30:54;95370.16;;;11.04;100.00
4590;BME280;2307;48.448;9.216;2023-12-29T11:33:21;95376.09;;;11.11;100.00
4590;BME280;2307;48.448;9.216;2023-12-29T11:35:51;95362.75;;;11.17;100.00
4590;BME280;2307;48.448;9.216;2023-12-29T11:38:31;95368.28;;;11.16;100.00
4590;BME280;2307;48.448;9.216;2023-12-29T11:41:02;95371.81;;;11.22;100.00
4590;BME280;2307;48.448;9.216;2023-12-29T11:43:31;95377.13;;;11.10;100.00
4590;BME280;2307;48.448;9.216;2023-12-29T11:45:59;95368.66;;;11.08;100.00
4590;BME280;2307;48.448;9.216;2023-12-29T11:51:30;95371.19;;;11.31;100.00
4590;BME280;2307;48.448;9.216;2023-12-29T11:53:57;95380.63;;;11.44;100.00
4590;BME280;2307;48.448;9.216;2023-12-29T11:56:24;95374.16;;;11.35;100.00
4590;BME280;2307;48.448;9.216;2023-12-29T11:58:50;95361.63;;;11.30;100.00
4590;BME280;2307;48.448;9.216;2023-12-29T12:03:59;95350.34;;;11.35;100.00
4590;BME280;2307;48.448;9.216;2023-12-29T12:06:36;95355.22;;;11.43;100.00
4590;BME280;2307;48.448;9.216;2023-12-29T12:09:15;95360.84;;;11.46;100.00
4590;BME280;2307;48.448;9.216;2023-12-29T12:11:41;95340.66;;;11.57;100.00
4590;BME280;2307;48.448;9.216;2023-12-29T12:14:08;95347.44;;;11.69;100.00
4590;BME280;2307;48.448;9.216;2023-12-29T12:16:47;95352.75;;;11.69;100.00
4590;BME280;2307;48.448;9.216;2023-12-29T12:19:15;95350.97;;;11.58;100.00
4590;BME280;2307;48.448;9.216;2023-12-29T12:21:44;95341.63;;;11.51;100.00
4590;BME280;2307;48.448;9.216;2023-12-29T12:24:11;95337.69;;;11.37;100.00
4590;BME280;2307;48.448;9.216;2023-12-29T12:26:38;95339.94;;;11.28;100.00
4590;BME280;2307;48.448;9.216;2023-12-29T12:29:06;95332.72;;;11.40;100.00
4590;BME280;2307;48.448;9.216;2023-12-29T12:31:32;95348.03;;;11.38;100.00
4590;BME280;2307;48.448;9.216;2023-12-29T12:33:59;95357.78;;;11.38;100.00
4590;BME280;2307;48.448;9.216;2023-12-29T12:36:27;95330.38;;;11.27;100.00
4590;BME280;2307;48.448;9.216;2023-12-29T12:38:54;95338.63;;;11.14;100.00
4590;BME280;2307;48.448;9.216;2023-12-29T12:41:20;95329.13;;;11.13;100.00
4590;BME280;2307;48.448;9.216;2023-12-29T12:43:50;95340.22;;;11.15;100.00
4590;BME280;2307;48.448;9.216;2023-12-29T12:46:19;95330.94;;;11.12;100.00
4590;BME280;2307;48.448;9.216;2023-12-29T12:48:48;95329.66;;;11.15;100.00
4590;BME280;2307;48.448;9.216;2023-12-29T12:51:14;95334.41;;;11.13;100.00
4590;BME280;2307;48.448;9.216;2023-12-29T12:53:42;95322.91;;;11.07;100.00
4590;BME280;2307;48.448;9.216;2023-12-29T12:56:09;95322.13;;;11.07;100.00
4590;BME280;2307;48.448;9.216;2023-12-29T12:58:36;95326.03;;;11.04;100.00
4590;BME280;2307;48.448;9.216;2023-12-29T13:01:03;95327.41;;;11.07;100.00
4590;BME280;2307;48.448;9.216;2023-12-29T13:03:30;95323.88;;;11.01;100.00
4590;BME280;2307;48.448;9.216;2023-12-29T13:05:58;95335.91;;;11.09;100.00
4590;BME280;2307;48.448;9.216;2023-12-29T13:08:25;95361.44;;;11.20;100.00
4590;BME280;2307;48.448;9.216;2023-12-29T13:10:52;95332.88;;;11.34;100.00
4590;BME280;2307;48.448;9.216;2023-12-29T13:13:19;95329.81;;;11.42;100.00
4590;BME280;2307;48.448;9.216;2023-12-29T13:15:46;95334.44;;;11.51;100.00
4590;BME280;2307;48.448;9.216;2023-12-29T13:18:12;95320.34;;;11.46;100.00
4590;BME280;2307;48.448;9.216;2023-12-29T13:20:45;95334.38;;;11.46;100.00
4590;BME280;2307;48.448;9.216;2023-12-29T13:23:12;95327.66;;;11.55;100.00
4590;BME280;2307;48.448;9.216;2023-12-29T13:25:38;95348.16;;;11.48;100.00